createdAt,value
2022-12-01T00:00:12.694Z,4.70
2022-12-01T00:02:39.489Z,4.70
2022-12-01T00:05:06.299Z,4.50
2022-12-01T00:07:33.097Z,4.50
2022-12-01T00:10:18.159Z,4.50
2022-12-01T00:12:44.777Z,4.60
2022-12-01T00:15:11.646Z,4.70
2022-12-01T00:17:39.022Z,4.60
2022-12-01T00:20:07.160Z,4.50
2022-12-01T00:22:33.800Z,4.50
2022-12-01T00:25:00.549Z,4.50
2022-12-01T00:27:27.187Z,4.40
2022-12-01T00:29:53.884Z,4.20
2022-12-01T00:32:20.534Z,4.20
2022-12-01T00:34:47.179Z,4.20
2022-12-01T00:37:13.818Z,4.40
2022-12-01T00:39:40.445Z,4.40
2022-12-01T00:42:12.898Z,4.40
2022-12-01T00:44:40.088Z,4.40
2022-12-01T00:47:06.927Z,4.40
2022-12-01T00:49:33.595Z,4.40
2022-12-01T00:52:01.287Z,4.50
2022-12-01T00:54:28.364Z,4.60
2022-12-01T00:56:54.973Z,4.60
2022-12-01T00:59:21.639Z,4.40
2022-12-01T01:01:49.772Z,4.30
2022-12-01T01:04:16.719Z,4.20
2022-12-01T01:06:43.471Z,4.20
2022-12-01T01:09:11.137Z,4.20
2022-12-01T01:11:37.857Z,4.10
2022-12-01T01:14:05.303Z,4.10
2022-12-01T01:16:32.450Z,4.10
2022-12-01T01:18:59.598Z,4.10
2022-12-01T01:21:26.878Z,4.00
2022-12-01T01:23:55.053Z,4.10
2022-12-01T01:26:24.271Z,4.30
2022-12-01T01:28:51.442Z,4.20
2022-12-01T01:31:23.695Z,4.20
2022-12-01T01:33:50.443Z,4.20
2022-12-01T01:36:18.307Z,4.30
2022-12-01T01:38:45.207Z,4.40
2022-12-01T01:41:12.254Z,4.50
2022-12-01T01:43:49.381Z,4.40
2022-12-01T01:46:19.067Z,4.40
2022-12-01T01:48:53.389Z,4.40
2022-12-01T01:51:25.259Z,4.40
2022-12-01T01:53:56.438Z,4.50
2022-12-01T01:56:24.140Z,4.70
2022-12-01T01:58:52.275Z,4.70
2022-12-01T02:01:19.132Z,4.70
2022-12-01T02:03:47.387Z,4.80
2022-12-01T02:06:14.930Z,4.80
2022-12-01T02:08:41.573Z,4.90
2022-12-01T02:11:33.064Z,4.90
2022-12-01T02:14:25.341Z,4.80
2022-12-01T02:17:09.890Z,4.80
2022-12-01T02:20:14.407Z,4.70
2022-12-01T02:22:44.034Z,4.60
2022-12-01T02:25:18.342Z,4.80
2022-12-01T02:28:36.904Z,4.50
2022-12-01T02:31:15.172Z,4.50
2022-12-01T02:33:44.015Z,4.40
2022-12-01T02:36:19.570Z,4.50
2022-12-01T02:38:58.086Z,4.20
2022-12-01T02:41:27.445Z,4.40
2022-12-01T02:44:03.193Z,4.20
2022-12-01T02:46:35.559Z,4.20
2022-12-01T02:49:06.855Z,4.10
2022-12-01T02:51:37.319Z,4.00
2022-12-01T02:54:05.854Z,4.10
2022-12-01T02:56:32.548Z,4.20
2022-12-01T02:58:59.160Z,4.30
2022-12-01T03:02:02.988Z,4.00
2022-12-01T03:05:09.057Z,4.00
2022-12-01T03:07:45.761Z,3.90
2022-12-01T03:10:26.298Z,4.00
2022-12-01T03:13:05.046Z,4.00
2022-12-01T03:16:03.805Z,3.90
2022-12-01T03:18:42.347Z,3.90
2022-12-01T03:21:34.796Z,3.90
2022-12-01T03:24:06.464Z,3.80
2022-12-01T03:26:36.335Z,3.80
2022-12-01T03:29:08.259Z,3.70
2022-12-01T03:31:45.688Z,3.90
2022-12-01T03:34:18.037Z,3.80
2022-12-01T03:36:51.712Z,3.80
2022-12-01T03:39:23.925Z,3.80
2022-12-01T03:42:20.651Z,3.80
2022-12-01T03:44:55.236Z,3.70
2022-12-01T03:47:25.023Z,3.80
2022-12-01T03:49:54.026Z,3.90
2022-12-01T03:52:44.220Z,4.10
2022-12-01T03:55:31.967Z,4.10
2022-12-01T03:58:01.731Z,4.00
2022-12-01T04:00:29.539Z,3.80
2022-12-01T04:02:58.508Z,3.70
2022-12-01T04:05:26.551Z,3.70
2022-12-01T04:07:53.507Z,3.90
2022-12-01T04:10:20.233Z,3.90
2022-12-01T04:12:46.945Z,3.90
2022-12-01T04:15:14.959Z,4.00
2022-12-01T04:17:43.515Z,3.80
2022-12-01T04:20:15.064Z,3.90
2022-12-01T04:22:42.097Z,4.00
2022-12-01T04:25:09.813Z,3.90
2022-12-01T04:27:37.006Z,3.90
2022-12-01T04:30:05.310Z,4.10
2022-12-01T04:32:37.342Z,4.20
2022-12-01T04:35:04.117Z,4.20
2022-12-01T04:37:30.726Z,4.20
2022-12-01T04:39:57.307Z,4.10
2022-12-01T04:42:23.902Z,4.20
2022-12-01T04:44:50.567Z,4.20
2022-12-01T04:47:17.200Z,4.30
2022-12-01T04:49:43.862Z,4.40
2022-12-01T04:52:10.498Z,4.40
2022-12-01T04:54:37.166Z,4.40
2022-12-01T04:57:03.925Z,4.30
2022-12-01T04:59:30.621Z,4.30
2022-12-01T05:01:57.403Z,4.30
2022-12-01T05:04:24.431Z,4.30
2022-12-01T05:06:53.678Z,4.30
2022-12-01T05:09:21.334Z,4.40
2022-12-01T05:11:48.054Z,4.50
2022-12-01T05:14:14.689Z,4.50
2022-12-01T05:16:41.418Z,4.50
2022-12-01T05:19:26.591Z,4.50
2022-12-01T05:21:53.369Z,4.30
2022-12-01T05:24:21.324Z,4.20
2022-12-01T05:26:48.274Z,4.20
2022-12-01T05:29:15.095Z,4.20
2022-12-01T05:31:42.251Z,4.30
2022-12-01T05:34:09.486Z,4.30
2022-12-01T05:36:36.455Z,4.30
2022-12-01T05:39:04.011Z,4.40
2022-12-01T05:41:30.755Z,4.30
2022-12-01T05:43:57.516Z,4.00
2022-12-01T05:46:24.270Z,4.00
2022-12-01T05:48:51.034Z,4.20
2022-12-01T05:51:17.933Z,4.30
2022-12-01T05:53:45.423Z,4.20
2022-12-01T05:56:12.449Z,4.30
2022-12-01T05:58:39.152Z,4.20
2022-12-01T06:01:05.970Z,4.10
2022-12-01T06:03:32.608Z,4.20
2022-12-01T06:05:59.263Z,4.20
2022-12-01T06:08:25.939Z,4.20
2022-12-01T06:10:52.642Z,4.00
2022-12-01T06:13:19.322Z,4.00
2022-12-01T06:15:45.991Z,3.90
2022-12-01T06:18:12.748Z,4.00
2022-12-01T06:20:39.373Z,4.10
2022-12-01T06:23:06.047Z,4.00
2022-12-01T06:25:32.704Z,3.90
2022-12-01T06:27:59.538Z,4.00
2022-12-01T06:30:26.501Z,4.00
2022-12-01T06:32:53.288Z,4.10
2022-12-01T06:35:20.434Z,4.10
2022-12-01T06:37:47.087Z,4.20
2022-12-01T06:40:13.981Z,4.30
2022-12-01T06:42:40.620Z,4.40
2022-12-01T06:45:07.730Z,4.40
2022-12-01T06:47:34.803Z,4.40
2022-12-01T06:50:01.647Z,4.50
2022-12-01T06:52:28.518Z,4.50
2022-12-01T06:54:55.209Z,4.40
2022-12-01T06:57:23.964Z,4.30
2022-12-01T06:59:51.264Z,4.30
2022-12-01T07:02:18.268Z,4.20
2022-12-01T07:04:44.988Z,4.40
2022-12-01T07:07:12.179Z,4.30
2022-12-01T07:09:39.243Z,4.40
2022-12-01T07:12:06.334Z,4.40
2022-12-01T07:14:33.103Z,4.40
2022-12-01T07:16:59.919Z,4.40
2022-12-01T07:19:26.836Z,4.40
2022-12-01T07:21:53.434Z,4.30
2022-12-01T07:24:20.029Z,4.30
2022-12-01T07:26:47.932Z,4.40
2022-12-01T07:29:14.580Z,4.40
2022-12-01T07:31:41.350Z,4.30
2022-12-01T07:34:13.240Z,4.20
2022-12-01T07:36:39.924Z,4.20
2022-12-01T07:39:08.261Z,4.20
2022-12-01T07:41:35.547Z,4.20
2022-12-01T07:44:02.699Z,4.20
2022-12-01T07:46:29.507Z,4.30
2022-12-01T07:48:57.046Z,4.40
2022-12-01T07:51:25.212Z,4.50
2022-12-01T07:53:53.578Z,4.40
2022-12-01T07:56:21.182Z,4.40
2022-12-01T07:58:47.937Z,4.30
2022-12-01T08:01:17.404Z,4.50
2022-12-01T08:03:44.288Z,4.30
2022-12-01T08:06:11.888Z,4.30
2022-12-01T08:08:40.798Z,4.20
2022-12-01T08:11:12.521Z,4.10
2022-12-01T08:13:40.096Z,4.10
2022-12-01T08:16:09.166Z,4.10
2022-12-01T08:18:36.887Z,4.20
2022-12-01T08:21:04.753Z,4.20
2022-12-01T08:23:31.657Z,4.20
2022-12-01T08:26:07.008Z,4.20
2022-12-01T08:28:36.279Z,4.40
2022-12-01T08:31:21.247Z,4.20
2022-12-01T08:33:49.175Z,4.30
2022-12-01T08:36:16.158Z,4.30
2022-12-01T08:38:48.492Z,4.20
2022-12-01T08:41:15.971Z,4.10
2022-12-01T08:44:00.915Z,4.00
2022-12-01T08:46:33.398Z,4.10
2022-12-01T08:49:00.515Z,4.20
2022-12-01T08:51:28.004Z,4.40
2022-12-01T08:53:56.353Z,4.20
2022-12-01T08:56:31.860Z,4.30
2022-12-01T08:58:58.929Z,4.20
2022-12-01T09:01:26.352Z,4.30
2022-12-01T09:04:05.480Z,4.40
2022-12-01T09:06:35.123Z,4.40
2022-12-01T09:09:02.225Z,4.40
2022-12-01T09:11:28.919Z,4.50
2022-12-01T09:13:55.577Z,4.40
2022-12-01T09:16:22.393Z,4.40
2022-12-01T09:18:49.363Z,4.50
2022-12-01T09:21:22.557Z,4.30
2022-12-01T09:23:50.138Z,4.30
2022-12-01T09:26:19.100Z,4.30
2022-12-01T09:28:47.816Z,4.30
2022-12-01T09:31:16.153Z,4.30
2022-12-01T09:33:43.153Z,4.30
2022-12-01T09:36:11.101Z,4.40
2022-12-01T09:38:38.945Z,4.40
2022-12-01T09:41:19.096Z,4.30
2022-12-01T09:44:30.278Z,4.30
2022-12-01T09:47:14.493Z,4.20
2022-12-01T09:49:59.511Z,4.20
2022-12-01T09:52:28.728Z,4.30
2022-12-01T09:54:57.901Z,4.30
2022-12-01T09:57:37.465Z,4.40
2022-12-01T10:00:31.674Z,4.40
2022-12-01T10:03:09.740Z,4.40
2022-12-01T10:09:03.469Z,4.40
2022-12-01T10:11:39.501Z,4.50
2022-12-01T10:14:17.988Z,4.50
2022-12-01T10:17:04.267Z,4.40
2022-12-01T10:19:31.921Z,4.50
2022-12-01T10:22:23.731Z,4.50
2022-12-01T10:25:25.530Z,4.60
2022-12-01T10:28:05.142Z,4.60
2022-12-01T10:30:39.226Z,4.60
2022-12-01T10:33:24.769Z,4.70
2022-12-01T10:35:52.405Z,4.70
2022-12-01T10:38:35.282Z,4.60
2022-12-01T10:41:04.350Z,4.70
2022-12-01T10:43:52.359Z,4.50
2022-12-01T10:46:33.567Z,4.70
2022-12-01T10:49:09.011Z,4.70
2022-12-01T10:51:54.485Z,4.60
2022-12-01T10:54:23.866Z,4.60
2022-12-01T10:56:56.620Z,4.70
2022-12-01T10:59:37.813Z,4.70
2022-12-01T11:02:14.300Z,4.80
2022-12-01T11:04:45.962Z,4.70
2022-12-01T11:07:19.406Z,4.80
2022-12-01T11:10:02.783Z,4.90
2022-12-01T11:12:29.733Z,4.80
2022-12-01T11:14:57.541Z,4.70
2022-12-01T11:17:38.875Z,4.70
2022-12-01T11:20:30.160Z,4.60
2022-12-01T11:23:24.393Z,4.70
2022-12-01T11:25:59.119Z,4.60
2022-12-01T11:28:26.366Z,4.60
2022-12-01T11:31:02.498Z,4.70
2022-12-01T11:33:30.735Z,4.70
2022-12-01T11:35:57.544Z,4.80
2022-12-01T11:38:32.609Z,4.70
2022-12-01T11:40:59.432Z,4.70
2022-12-01T11:43:34.241Z,4.80
2022-12-01T11:46:07.718Z,4.70
2022-12-01T11:48:36.295Z,4.70
2022-12-01T11:51:31.946Z,4.90
2022-12-01T11:54:13.758Z,5.00
2022-12-01T11:56:41.767Z,4.90
2022-12-01T11:59:21.229Z,4.90
2022-12-01T12:02:03.530Z,4.90
2022-12-01T12:04:42.406Z,5.00
2022-12-01T12:07:26.441Z,5.00
2022-12-01T12:09:55.949Z,5.20
2022-12-01T12:12:48.232Z,5.10
2022-12-01T12:15:50.512Z,5.00
2022-12-01T12:18:43.748Z,4.90
2022-12-01T12:21:10.392Z,4.80
2022-12-01T12:23:40.008Z,4.90
2022-12-01T12:26:09.815Z,4.90
2022-12-01T12:28:45.652Z,4.90
2022-12-01T12:31:24.411Z,5.00
2022-12-01T12:34:19.155Z,5.00
2022-12-01T12:37:15.733Z,5.00
2022-12-01T12:40:08.115Z,5.10
2022-12-01T12:42:46.683Z,5.10
2022-12-01T12:45:36.872Z,5.00
2022-12-01T12:48:06.212Z,5.10
2022-12-01T12:50:40.037Z,5.30
2022-12-01T12:53:15.796Z,5.30
2022-12-01T12:55:48.162Z,5.20
2022-12-01T12:58:29.501Z,5.20
2022-12-01T13:01:01.438Z,5.30
2022-12-01T13:03:43.269Z,5.30
2022-12-01T13:06:28.415Z,5.40
2022-12-01T13:09:15.910Z,5.30
2022-12-01T13:11:59.579Z,5.30
2022-12-01T13:14:38.427Z,5.40
2022-12-01T13:17:38.502Z,5.50
2022-12-01T13:20:06.658Z,5.50
2022-12-01T13:22:35.772Z,5.50
2022-12-01T13:25:04.113Z,5.40
2022-12-01T13:27:38.334Z,5.30
2022-12-01T13:30:05.803Z,5.30
2022-12-01T13:32:36.737Z,5.40
2022-12-01T13:35:25.072Z,5.30
2022-12-01T13:37:52.066Z,5.30
2022-12-01T13:40:30.556Z,5.30
2022-12-01T13:43:05.459Z,5.20
2022-12-01T13:45:40.535Z,5.30
2022-12-01T13:48:27.629Z,5.30
2022-12-01T13:51:05.221Z,5.20
2022-12-01T13:53:37.145Z,5.20
2022-12-01T13:56:24.148Z,5.20
2022-12-01T13:58:53.780Z,5.20
2022-12-01T14:01:20.890Z,5.20
2022-12-01T14:03:57.355Z,5.10
2022-12-01T14:06:36.046Z,5.20
2022-12-01T14:09:25.524Z,5.20
2022-12-01T14:12:00.476Z,5.20
2022-12-01T14:14:34.539Z,5.10
2022-12-01T14:17:03.255Z,5.10
2022-12-01T14:19:32.949Z,5.10
2022-12-01T14:22:01.515Z,5.00
2022-12-01T14:24:36.065Z,5.00
2022-12-01T14:27:04.863Z,5.00
2022-12-01T14:29:38.851Z,5.00
2022-12-01T14:32:19.395Z,5.00
2022-12-01T14:34:50.097Z,5.10
2022-12-01T14:37:20.888Z,4.90
2022-12-01T14:39:57.516Z,5.00
2022-12-01T14:43:01.442Z,4.90
2022-12-01T14:45:51.934Z,4.90
2022-12-01T14:48:34.661Z,4.90
2022-12-01T14:51:22.435Z,4.90
2022-12-01T14:53:51.981Z,4.90
2022-12-01T14:56:20.750Z,4.90
2022-12-01T14:58:56.585Z,4.80
2022-12-01T15:01:24.252Z,4.80
2022-12-01T15:03:56.811Z,4.80
2022-12-01T15:06:29.372Z,4.80
2022-12-01T15:12:04.679Z,4.90
2022-12-01T15:14:37.713Z,4.90
2022-12-01T15:17:08.956Z,4.80
2022-12-01T15:19:41.168Z,4.80
2022-12-01T15:22:17.841Z,4.90
2022-12-01T15:24:45.739Z,4.90
2022-12-01T15:27:30.301Z,4.90
2022-12-01T15:30:06.232Z,5.00
2022-12-01T15:32:38.255Z,4.90
2022-12-01T15:35:07.328Z,4.90
2022-12-01T15:37:44.575Z,4.90
2022-12-01T15:43:14.565Z,4.90
2022-12-01T15:46:13.346Z,4.90
2022-12-01T15:48:41.654Z,4.90
2022-12-01T15:51:18.864Z,5.00
2022-12-01T15:53:54.057Z,5.00
2022-12-01T15:56:40.975Z,4.90
2022-12-01T15:59:14.008Z,4.90
2022-12-01T16:01:43.520Z,4.80
2022-12-01T16:04:19.606Z,4.90
2022-12-01T16:07:05.289Z,4.80
2022-12-01T16:09:36.924Z,4.90
2022-12-01T16:12:04.604Z,4.90
2022-12-01T16:14:32.379Z,4.80
2022-12-01T16:17:00.005Z,4.80
2022-12-01T16:19:32.312Z,4.80
2022-12-01T16:22:20.224Z,4.90
2022-12-01T16:24:55.235Z,4.90
2022-12-01T16:27:26.223Z,4.90
2022-12-01T16:29:58.762Z,5.00
2022-12-01T16:32:34.067Z,5.00
2022-12-01T16:35:01.213Z,5.00
2022-12-01T16:37:28.582Z,4.90
2022-12-01T16:39:55.489Z,4.90
2022-12-01T16:42:22.635Z,4.90
2022-12-01T16:44:51.267Z,5.00
2022-12-01T16:47:25.336Z,5.00
2022-12-01T16:49:53.062Z,5.00
2022-12-01T16:55:20.790Z,5.00
2022-12-01T16:57:47.470Z,5.00
2022-12-01T17:00:14.639Z,5.00
2022-12-01T17:02:41.414Z,4.90
2022-12-01T17:05:10.576Z,4.90
2022-12-01T17:07:37.369Z,5.00
2022-12-01T17:10:05.485Z,5.00
2022-12-01T17:12:32.136Z,5.00
2022-12-01T17:14:58.853Z,5.00
2022-12-01T17:17:25.574Z,4.90
2022-12-01T17:19:52.952Z,4.90
2022-12-01T17:22:20.085Z,4.90
2022-12-01T17:24:46.905Z,4.90
2022-12-01T17:27:13.839Z,4.90
2022-12-01T17:29:44.532Z,4.80
2022-12-01T17:32:13.711Z,4.90
2022-12-01T17:34:40.662Z,5.00
2022-12-01T17:37:07.891Z,5.00
2022-12-01T17:39:34.939Z,5.10
2022-12-01T17:42:01.618Z,5.10
2022-12-01T17:44:28.386Z,5.10
2022-12-01T17:46:55.150Z,5.20
2022-12-01T17:49:22.416Z,5.70
2022-12-01T17:51:49.224Z,6.20
2022-12-01T17:54:16.262Z,6.40
2022-12-01T17:56:43.208Z,6.60
2022-12-01T17:59:09.936Z,6.80
2022-12-01T18:01:36.891Z,6.70
2022-12-01T18:04:04.038Z,6.80
2022-12-01T18:06:30.725Z,7.00
2022-12-01T18:08:58.851Z,7.00
2022-12-01T18:11:25.637Z,7.10
2022-12-01T18:13:52.813Z,7.10
2022-12-01T18:16:21.257Z,7.20
2022-12-01T18:18:48.806Z,7.20
2022-12-01T18:21:17.914Z,7.10
2022-12-01T18:23:56.763Z,7.10
2022-12-01T18:26:24.416Z,7.10
2022-12-01T18:29:05.141Z,7.10
2022-12-01T18:31:32.957Z,6.80
2022-12-01T18:34:02.988Z,6.80
2022-12-01T18:36:31.517Z,6.90
2022-12-01T18:38:59.864Z,7.00
2022-12-01T18:41:27.078Z,6.70
2022-12-01T18:43:54.140Z,6.80
2022-12-01T18:46:21.541Z,6.90
2022-12-01T18:48:51.505Z,7.00
2022-12-01T18:51:19.292Z,6.80
2022-12-01T18:53:46.178Z,6.90
2022-12-01T18:56:15.350Z,7.00
2022-12-01T18:58:42.937Z,7.00
2022-12-01T19:01:32.200Z,7.00
2022-12-01T19:03:59.799Z,7.10
2022-12-01T19:06:27.744Z,7.20
2022-12-01T19:08:55.040Z,7.10
2022-12-01T19:11:21.874Z,7.00
2022-12-01T19:13:48.872Z,6.90
2022-12-01T19:16:18.415Z,6.90
2022-12-01T19:18:45.277Z,6.80
2022-12-01T19:21:14.612Z,6.80
2022-12-01T19:23:41.664Z,6.80
2022-12-01T19:26:12.016Z,6.80
2022-12-01T19:28:40.329Z,6.70
2022-12-01T19:31:09.038Z,6.60
2022-12-01T19:33:35.929Z,6.60
2022-12-01T19:36:11.576Z,6.70
2022-12-01T19:38:41.072Z,6.40
2022-12-01T19:41:09.159Z,6.40
2022-12-01T19:43:36.336Z,6.60
2022-12-01T19:46:08.146Z,6.70
2022-12-01T19:48:35.335Z,6.60
2022-12-01T19:51:02.838Z,6.50
2022-12-01T19:53:33.594Z,6.50
2022-12-01T19:56:04.853Z,6.40
2022-12-01T19:58:34.816Z,6.50
2022-12-01T20:01:12.878Z,6.20
2022-12-01T20:03:40.694Z,6.40
2022-12-01T20:06:13.056Z,6.50
2022-12-01T20:08:52.452Z,6.40
2022-12-01T20:11:19.293Z,6.30
2022-12-01T20:13:46.981Z,6.30
2022-12-01T20:16:16.459Z,6.30
2022-12-01T20:18:43.725Z,6.40
2022-12-01T20:21:16.409Z,6.40
2022-12-01T20:23:45.244Z,6.40
2022-12-01T20:26:12.497Z,6.50
2022-12-01T20:28:40.279Z,6.50
2022-12-01T20:31:16.856Z,6.50
2022-12-01T20:33:43.970Z,6.50
2022-12-01T20:36:11.020Z,6.60
2022-12-01T20:38:38.491Z,6.60
2022-12-01T20:41:06.320Z,6.60
2022-12-01T20:43:34.197Z,6.60
2022-12-01T20:46:02.071Z,6.60
2022-12-01T20:48:29.445Z,6.50
2022-12-01T20:50:56.309Z,6.50
2022-12-01T20:53:23.061Z,6.20
2022-12-01T20:55:49.932Z,6.20
2022-12-01T20:58:16.625Z,6.20
2022-12-01T21:00:46.758Z,6.20
2022-12-01T21:03:14.299Z,6.10
2022-12-01T21:05:43.182Z,6.20
2022-12-01T21:08:12.300Z,6.10
2022-12-01T21:10:44.897Z,6.20
2022-12-01T21:13:41.879Z,6.10
2022-12-01T21:16:28.701Z,6.20
2022-12-01T21:19:09.546Z,6.10
2022-12-01T21:21:40.979Z,6.20
2022-12-01T21:24:07.590Z,6.00
2022-12-01T21:26:36.374Z,6.00
2022-12-01T21:29:18.670Z,6.10
2022-12-01T21:31:46.623Z,6.00
2022-12-01T21:34:18.381Z,5.90
2022-12-01T21:36:47.683Z,6.00
2022-12-01T21:39:17.353Z,6.00
2022-12-01T21:41:44.290Z,5.90
2022-12-01T21:44:17.687Z,6.00
2022-12-01T21:46:44.747Z,5.80
2022-12-01T21:49:16.347Z,5.80
2022-12-01T21:51:43.633Z,5.90
2022-12-01T21:54:15.444Z,5.80
2022-12-01T21:56:42.712Z,5.90
2022-12-01T21:59:23.612Z,6.00
2022-12-01T22:01:56.086Z,5.90
2022-12-01T22:04:30.345Z,5.90
2022-12-01T22:06:58.425Z,5.80
2022-12-01T22:09:34.325Z,5.80
2022-12-01T22:12:10.071Z,5.70
2022-12-01T22:14:36.983Z,5.60
2022-12-01T22:17:06.425Z,5.50
2022-12-01T22:19:37.143Z,5.50
2022-12-01T22:22:09.824Z,5.60
2022-12-01T22:24:44.138Z,5.50
2022-12-01T22:27:28.969Z,5.60
2022-12-01T22:30:18.931Z,5.70
2022-12-01T22:33:03.606Z,5.70
2022-12-01T22:35:43.006Z,5.70
2022-12-01T22:38:17.336Z,5.70
2022-12-01T22:40:53.288Z,5.80
2022-12-01T22:43:24.712Z,5.80
2022-12-01T22:46:19.010Z,5.90
2022-12-01T22:48:58.993Z,5.90
2022-12-01T22:51:36.570Z,5.90
2022-12-01T22:54:15.116Z,5.70
2022-12-01T22:56:44.497Z,5.70
2022-12-01T22:59:28.134Z,5.70
2022-12-01T23:02:00.280Z,5.70
2022-12-01T23:04:28.063Z,5.70
2022-12-01T23:07:01.930Z,5.70
2022-12-01T23:09:38.428Z,5.60
2022-12-01T23:12:21.384Z,5.60
2022-12-01T23:14:54.534Z,5.60
2022-12-01T23:17:21.222Z,5.60
2022-12-01T23:19:51.210Z,5.70
2022-12-01T23:22:18.048Z,5.70
2022-12-01T23:24:45.428Z,5.70
2022-12-01T23:27:12.627Z,5.70
2022-12-01T23:29:39.366Z,5.70
2022-12-01T23:32:06.275Z,5.70
2022-12-01T23:34:34.396Z,5.60
2022-12-01T23:37:01.657Z,5.60
2022-12-01T23:39:35.123Z,5.70
2022-12-01T23:42:03.387Z,5.70
2022-12-01T23:44:45.150Z,5.90
2022-12-01T23:47:26.618Z,5.90
2022-12-01T23:50:00.584Z,5.80
2022-12-01T23:52:33.527Z,5.80
2022-12-01T23:55:00.455Z,5.70
2022-12-01T23:57:27.459Z,5.70
2022-12-01T23:59:58.283Z,5.70
